Details for Ryanair at LPPD




Go Back


Latest METAR
Local Time

LPPD 212300Z 35006KT 310V030 9999 FEW020 20/15 Q1027

21/06/2018, 23:32:36

Description
Results
Ryanair Logo
Number of Pilots based at LPPD
0 Pilots Based here
Number of Ryanair Flights Departed from LPPD
1 Flights Departed
Number of Ryanair Flights Arrived at LPPD
1 Flights Arrived
Number of Ryanair Schedules Departing from LPPD
8 Schedules
Number of Ryanair Schedules Arriving at LPPD
9 Schedules
Number of Ryanair Schedules Departing from LPPD availible today
4 Schedules Today
Number of Ryanair Schedules Arriving at LPPD availible today
4 Schedules Today
Average Landing Rate at LPPD
-148 fpm
Ryanair Average Landing Rate at LPPD
-158 fpm
Total Fuel Purchased at LPPD by Ryanair
4,921.00 kgs / 10,848.84 lbs

Pilots Based at LPPD


Pilot ID
Pilot Name
Pilot Rank
No. of Flights
No. of Flying Hours
There are no pilots assigned to this hub!   Will you be the first?
Content